createdAt,value
2023-04-02T00:01:01.739Z,99.90
2023-04-02T00:04:00.642Z,99.90
2023-04-02T00:06:44.895Z,99.90
2023-04-02T00:09:15.084Z,99.90
2023-04-02T00:11:49.951Z,99.90
2023-04-02T00:14:33.696Z,99.90
2023-04-02T00:17:05.612Z,99.90
2023-04-02T00:19:46.181Z,99.90
2023-04-02T00:22:27.915Z,99.90
2023-04-02T00:24:57.402Z,99.90
2023-04-02T00:27:24.719Z,99.90
2023-04-02T00:29:56.714Z,99.90
2023-04-02T00:32:35.853Z,99.90
2023-04-02T00:35:17.502Z,99.90
2023-04-02T00:37:45.865Z,99.90
2023-04-02T00:40:29.200Z,99.90
2023-04-02T00:43:04.222Z,99.90
2023-04-02T00:45:37.217Z,99.90
2023-04-02T00:48:41.121Z,99.90
2023-04-02T00:51:32.180Z,99.90
2023-04-02T00:54:07.191Z,99.90
2023-04-02T00:56:48.847Z,99.90
2023-04-02T00:59:36.644Z,99.90
2023-04-02T01:02:17.354Z,99.90
2023-04-02T01:05:02.880Z,99.90
2023-04-02T01:08:11.510Z,99.90
2023-04-02T01:10:44.227Z,99.90
2023-04-02T01:13:43.963Z,99.90
2023-04-02T01:16:31.282Z,99.90
2023-04-02T01:19:39.135Z,99.90
2023-04-02T01:22:11.986Z,99.90
2023-04-02T01:24:38.909Z,99.90
2023-04-02T01:27:27.183Z,99.90
2023-04-02T01:29:59.961Z,99.90
2023-04-02T01:32:31.301Z,99.90
2023-04-02T01:34:58.472Z,99.90
2023-04-02T01:37:52.595Z,99.90
2023-04-02T01:40:39.411Z,99.90
2023-04-02T01:43:55.328Z,99.90
2023-04-02T01:46:34.472Z,99.90
2023-04-02T01:49:18.112Z,99.90
2023-04-02T01:51:52.999Z,99.90
2023-04-02T01:54:22.849Z,99.90
2023-04-02T01:56:51.925Z,99.90
2023-04-02T01:59:23.939Z,99.90
2023-04-02T02:02:11.785Z,99.90
2023-04-02T02:04:41.168Z,99.90
2023-04-02T02:07:20.482Z,99.90
2023-04-02T02:09:49.715Z,99.90
2023-04-02T02:12:16.965Z,99.90
2023-04-02T02:14:50.773Z,99.90
2023-04-02T02:17:30.299Z,99.90
2023-04-02T02:20:05.527Z,99.90
2023-04-02T02:22:39.019Z,99.90
2023-04-02T02:25:21.570Z,99.90
2023-04-02T02:28:28.459Z,99.90
2023-04-02T02:31:12.857Z,99.90
2023-04-02T02:33:51.060Z,99.90
2023-04-02T02:36:50.580Z,99.90
2023-04-02T02:39:34.259Z,99.90
2023-04-02T02:42:28.615Z,99.90
2023-04-02T02:45:00.775Z,99.90
2023-04-02T02:47:34.009Z,99.90
2023-04-02T02:50:08.691Z,99.90
2023-04-02T02:52:38.876Z,99.90
2023-04-02T02:55:24.307Z,99.90
2023-04-02T02:58:03.279Z,99.90
2023-04-02T03:00:31.883Z,99.90
2023-04-02T03:02:59.529Z,99.90
2023-04-02T03:05:29.746Z,99.90
2023-04-02T03:08:03.031Z,99.90
2023-04-02T03:11:00.992Z,99.90
2023-04-02T03:13:35.188Z,99.90
2023-04-02T03:16:28.349Z,99.90
2023-04-02T03:19:26.347Z,99.90
2023-04-02T03:22:16.296Z,99.90
2023-04-02T03:25:26.720Z,99.90
2023-04-02T03:28:04.446Z,99.90
2023-04-02T03:30:42.009Z,99.90
2023-04-02T03:33:27.944Z,99.90
2023-04-02T03:36:28.431Z,99.90
2023-04-02T03:39:09.079Z,99.90
2023-04-02T03:41:51.681Z,99.90
2023-04-02T03:44:42.704Z,99.90
2023-04-02T03:47:34.104Z,99.90
2023-04-02T03:50:08.170Z,99.90
2023-04-02T03:52:38.658Z,99.90
2023-04-02T03:55:23.866Z,99.90
2023-04-02T03:58:34.188Z,99.90
2023-04-02T04:01:29.626Z,99.90
2023-04-02T04:04:10.677Z,99.90
2023-04-02T04:06:46.076Z,99.90
2023-04-02T04:09:36.870Z,99.90
2023-04-02T04:12:34.833Z,99.90
2023-04-02T04:15:34.243Z,99.90
2023-04-02T04:18:34.671Z,99.90
2023-04-02T04:21:37.412Z,99.90
2023-04-02T04:24:27.708Z,99.90
2023-04-02T04:27:14.527Z,99.90
2023-04-02T04:30:28.768Z,99.90
2023-04-02T04:33:15.233Z,99.90
2023-04-02T04:35:56.543Z,99.90
2023-04-02T04:38:39.088Z,99.90
2023-04-02T04:41:21.257Z,99.90
2023-04-02T04:44:49.264Z,99.90
2023-04-02T04:47:30.748Z,99.90
2023-04-02T04:50:17.260Z,99.90
2023-04-02T04:52:44.584Z,99.90
2023-04-02T04:55:28.416Z,99.90
2023-04-02T04:58:13.773Z,99.90
2023-04-02T05:01:13.538Z,99.90
2023-04-02T05:04:25.012Z,99.90
2023-04-02T05:07:29.280Z,99.90
2023-04-02T05:10:18.074Z,99.90
2023-04-02T05:12:58.971Z,99.90
2023-04-02T05:15:50.538Z,99.90
2023-04-02T05:18:56.452Z,99.90
2023-04-02T05:21:58.348Z,99.90
2023-04-02T05:25:45.402Z,99.90
2023-04-02T05:28:44.240Z,99.90
2023-04-02T05:31:25.903Z,99.90
2023-04-02T05:33:55.294Z,99.90
2023-04-02T05:36:29.954Z,99.90
2023-04-02T05:38:59.647Z,99.90
2023-04-02T05:41:44.200Z,99.90
2023-04-02T05:44:24.381Z,99.90
2023-04-02T05:47:12.151Z,99.90
2023-04-02T05:50:26.990Z,99.90
2023-04-02T05:53:37.660Z,99.90
2023-04-02T05:56:27.779Z,99.90
2023-04-02T05:59:16.103Z,99.90
2023-04-02T06:02:16.928Z,99.90
2023-04-02T06:04:59.698Z,99.90
2023-04-02T06:07:44.939Z,99.90
2023-04-02T06:10:27.877Z,99.90
2023-04-02T06:13:08.397Z,99.90
2023-04-02T06:15:39.285Z,99.90
2023-04-02T06:18:22.675Z,99.90
2023-04-02T06:20:50.334Z,99.90
2023-04-02T06:23:53.386Z,99.90
2023-04-02T06:26:40.512Z,99.90
2023-04-02T06:29:44.318Z,99.90
2023-04-02T06:32:13.030Z,99.90
2023-04-02T06:34:42.682Z,99.90
2023-04-02T06:37:41.670Z,99.90
2023-04-02T06:40:56.975Z,99.90
2023-04-02T06:43:37.418Z,99.90
2023-04-02T06:46:25.296Z,99.90
2023-04-02T06:49:06.418Z,99.90
2023-04-02T06:51:38.434Z,99.90
2023-04-02T06:54:06.252Z,99.90
2023-04-02T06:56:56.315Z,99.90
2023-04-02T06:59:24.418Z,99.90
2023-04-02T07:02:39.683Z,99.90
2023-04-02T07:05:09.429Z,99.90
2023-04-02T07:07:36.369Z,99.90
2023-04-02T07:10:03.555Z,99.90
2023-04-02T07:12:30.568Z,99.90
2023-04-02T07:14:57.525Z,99.90
2023-04-02T07:17:24.409Z,99.90
2023-04-02T07:19:51.590Z,99.90
2023-04-02T07:22:22.013Z,99.90
2023-04-02T07:24:48.911Z,99.90
2023-04-02T07:27:15.880Z,99.90
2023-04-02T07:29:42.914Z,99.90
2023-04-02T07:32:12.809Z,99.90
2023-04-02T07:34:41.489Z,99.90
2023-04-02T07:37:14.542Z,99.90
2023-04-02T07:39:41.614Z,99.90
2023-04-02T07:42:08.572Z,99.90
2023-04-02T07:44:35.671Z,99.90
2023-04-02T07:47:02.654Z,99.90
2023-04-02T07:49:29.711Z,99.90
2023-04-02T07:51:56.671Z,99.90
2023-04-02T07:54:23.510Z,99.90
2023-04-02T07:56:50.749Z,99.90
2023-04-02T07:59:17.708Z,99.90
2023-04-02T08:03:58.008Z,99.90
2023-04-02T08:06:25.618Z,99.90
2023-04-02T08:08:52.726Z,99.90
2023-04-02T08:11:20.244Z,99.90
2023-04-02T08:13:47.700Z,99.90
2023-04-02T08:16:14.731Z,99.90
2023-04-02T08:18:41.707Z,99.90
2023-04-02T08:21:11.007Z,99.90
2023-04-02T08:23:38.481Z,99.90
2023-04-02T08:26:07.075Z,99.90
2023-04-02T08:28:35.033Z,99.90
2023-04-02T08:31:04.406Z,99.90
2023-04-02T08:33:31.458Z,99.90
2023-04-02T08:35:58.573Z,99.90
2023-04-02T08:38:25.856Z,99.90
2023-04-02T08:41:01.690Z,99.90
2023-04-02T08:44:18.201Z,99.90
2023-04-02T08:47:13.460Z,99.90
2023-04-02T08:50:01.561Z,99.90
2023-04-02T08:52:38.054Z,99.90
2023-04-02T08:55:34.811Z,99.90
2023-04-02T08:58:44.739Z,99.90
2023-04-02T09:01:42.334Z,99.90
2023-04-02T09:04:24.717Z,99.90
2023-04-02T09:06:57.141Z,99.90
2023-04-02T09:09:25.351Z,99.90
2023-04-02T09:12:03.964Z,99.90
2023-04-02T09:15:06.077Z,99.90
2023-04-02T09:17:42.639Z,99.90
2023-04-02T09:20:18.594Z,99.90
2023-04-02T09:22:51.348Z,99.90
2023-04-02T09:25:33.262Z,99.90
2023-04-02T09:28:05.667Z,99.90
2023-04-02T09:30:32.424Z,99.90
2023-04-02T09:33:09.071Z,99.90
2023-04-02T09:35:56.321Z,99.90
2023-04-02T09:38:24.539Z,99.90
2023-04-02T09:40:54.125Z,99.90
2023-04-02T09:43:24.930Z,99.90
2023-04-02T09:46:04.290Z,99.90
2023-04-02T09:48:43.953Z,99.90
2023-04-02T09:51:29.861Z,99.90
2023-04-02T09:54:05.882Z,99.90
2023-04-02T09:56:37.221Z,99.90
2023-04-02T09:59:13.026Z,99.90
2023-04-02T10:01:47.769Z,99.90
2023-04-02T10:04:47.614Z,99.90
2023-04-02T10:07:43.489Z,99.90
2023-04-02T10:10:40.040Z,99.90
2023-04-02T10:13:35.399Z,99.90
2023-04-02T10:16:20.959Z,99.90
2023-04-02T10:18:59.364Z,99.90
2023-04-02T10:21:35.873Z,99.90
2023-04-02T10:24:12.014Z,99.90
2023-04-02T10:27:39.262Z,99.90
2023-04-02T10:30:30.508Z,99.90
2023-04-02T10:33:27.345Z,99.90
2023-04-02T10:36:27.061Z,99.90
2023-04-02T10:39:32.364Z,99.90
2023-04-02T10:42:26.136Z,99.90
2023-04-02T10:45:04.950Z,99.90
2023-04-02T10:48:06.233Z,99.90
2023-04-02T10:50:42.625Z,99.90
2023-04-02T10:53:25.209Z,99.90
2023-04-02T10:56:12.263Z,99.90
2023-04-02T10:59:13.595Z,99.90
2023-04-02T11:01:44.452Z,99.90
2023-04-02T11:04:36.914Z,99.90
2023-04-02T11:07:18.022Z,99.90
2023-04-02T11:09:52.934Z,99.90
2023-04-02T11:12:50.463Z,99.90
2023-04-02T11:15:20.246Z,99.90
2023-04-02T11:17:48.319Z,99.90
2023-04-02T11:20:44.155Z,99.90
2023-04-02T11:23:17.490Z,99.90
2023-04-02T11:25:46.518Z,99.90
2023-04-02T11:28:35.123Z,99.90
2023-04-02T11:31:02.302Z,99.90
2023-04-02T11:33:45.641Z,99.90
2023-04-02T11:36:52.672Z,99.90
2023-04-02T11:39:53.354Z,99.90
2023-04-02T11:42:30.606Z,99.90
2023-04-02T11:45:23.462Z,99.90
2023-04-02T11:48:03.901Z,99.90
2023-04-02T11:50:46.212Z,99.90
2023-04-02T11:53:14.604Z,99.90
2023-04-02T11:56:06.264Z,99.90
2023-04-02T11:59:14.712Z,99.90
2023-04-02T12:02:21.885Z,99.90
2023-04-02T12:05:24.453Z,99.90
2023-04-02T12:08:57.614Z,99.90
2023-04-02T12:11:40.228Z,99.90
2023-04-02T12:14:48.291Z,99.90
2023-04-02T12:17:38.954Z,99.90
2023-04-02T12:20:13.549Z,99.90
2023-04-02T12:22:51.103Z,99.90
2023-04-02T12:25:41.124Z,99.90
2023-04-02T12:28:11.224Z,99.90
2023-04-02T12:30:39.037Z,99.90
2023-04-02T12:33:41.069Z,99.90
2023-04-02T12:36:22.469Z,99.90
2023-04-02T12:38:58.462Z,99.90
2023-04-02T12:41:32.196Z,99.90
2023-04-02T12:44:24.623Z,99.90
2023-04-02T12:46:52.822Z,99.90
2023-04-02T12:49:39.943Z,99.90
2023-04-02T12:52:18.959Z,99.90
2023-04-02T12:55:04.857Z,99.90
2023-04-02T12:57:38.180Z,99.90
2023-04-02T13:00:25.286Z,99.90
2023-04-02T13:03:20.641Z,99.90
2023-04-02T13:05:57.325Z,99.90
2023-04-02T13:08:41.467Z,99.90
2023-04-02T13:11:09.021Z,99.90
2023-04-02T13:13:43.353Z,99.90
2023-04-02T13:16:10.324Z,99.90
2023-04-02T13:18:39.025Z,99.90
2023-04-02T13:21:21.064Z,99.90
2023-04-02T13:23:48.365Z,99.90
2023-04-02T13:26:26.168Z,99.90
2023-04-02T13:29:36.618Z,99.90
2023-04-02T13:32:12.884Z,99.90
2023-04-02T13:34:39.759Z,99.90
2023-04-02T13:37:06.625Z,99.90
2023-04-02T13:39:33.462Z,99.90
2023-04-02T13:42:04.420Z,99.90
2023-04-02T13:44:35.814Z,99.90
2023-04-02T13:47:02.905Z,99.90
2023-04-02T13:49:32.046Z,99.90
2023-04-02T13:52:04.826Z,99.90
2023-04-02T13:54:52.822Z,99.90
2023-04-02T13:57:20.459Z,99.90
2023-04-02T13:59:47.486Z,99.90
2023-04-02T14:02:26.051Z,99.90
2023-04-02T14:05:39.376Z,99.90
2023-04-02T14:08:22.673Z,99.90
2023-04-02T14:11:31.666Z,99.90
2023-04-02T14:14:34.244Z,99.90
2023-04-02T14:17:43.506Z,99.90
2023-04-02T14:20:34.913Z,99.90
2023-04-02T14:23:36.421Z,99.90
2023-04-02T14:26:24.024Z,99.90
2023-04-02T14:29:20.267Z,99.90
2023-04-02T14:32:08.921Z,99.90
2023-04-02T14:35:03.006Z,99.90
2023-04-02T14:38:12.971Z,99.90
2023-04-02T14:40:55.957Z,99.90
2023-04-02T14:43:32.432Z,99.90
2023-04-02T14:46:10.499Z,99.90
2023-04-02T14:48:52.725Z,99.90
2023-04-02T14:51:49.640Z,99.90
2023-04-02T14:54:58.629Z,99.90
2023-04-02T14:57:44.581Z,99.90
2023-04-02T15:00:50.976Z,99.90
2023-04-02T15:03:34.925Z,99.90
2023-04-02T15:06:21.198Z,99.90
2023-04-02T15:09:11.628Z,99.90
2023-04-02T15:12:07.794Z,99.90
2023-04-02T15:14:51.033Z,99.90
2023-04-02T15:17:20.456Z,99.90
2023-04-02T15:19:47.608Z,99.90
2023-04-02T15:23:01.355Z,99.90
2023-04-02T15:26:21.500Z,99.90
2023-04-02T15:29:42.742Z,99.90
2023-04-02T15:32:33.675Z,99.90
2023-04-02T15:35:22.655Z,99.90
2023-04-02T15:38:18.862Z,99.90
2023-04-02T15:41:26.359Z,99.90
2023-04-02T15:44:17.291Z,99.90
2023-04-02T15:47:27.778Z,99.90
2023-04-02T15:50:58.847Z,99.90
2023-04-02T15:54:12.613Z,99.90
2023-04-02T15:57:16.889Z,99.90
2023-04-02T16:00:26.720Z,99.90
2023-04-02T16:03:38.743Z,99.90
2023-04-02T16:06:34.691Z,99.90
2023-04-02T16:09:37.259Z,99.90
2023-04-02T16:12:31.593Z,99.90
2023-04-02T16:15:17.800Z,99.90
2023-04-02T16:18:01.725Z,99.90
2023-04-02T16:20:51.043Z,99.90
2023-04-02T16:23:33.415Z,99.40
2023-04-02T16:26:26.514Z,99.20
2023-04-02T16:29:51.122Z,99.00
2023-04-02T16:33:16.164Z,99.10
2023-04-02T16:36:27.100Z,99.30
2023-04-02T16:39:18.839Z,99.30
2023-04-02T16:42:01.597Z,99.20
2023-04-02T16:45:14.488Z,99.30
2023-04-02T16:48:05.307Z,99.30
2023-04-02T16:50:49.248Z,99.00
2023-04-02T16:53:54.459Z,99.30
2023-04-02T16:57:02.979Z,99.10
2023-04-02T17:00:01.156Z,98.90
2023-04-02T17:03:14.368Z,99.00
2023-04-02T17:06:06.752Z,99.30
2023-04-02T17:08:50.492Z,98.90
2023-04-02T17:11:36.414Z,99.00
2023-04-02T17:14:29.840Z,99.10
2023-04-02T17:17:04.734Z,99.00
2023-04-02T17:19:33.172Z,98.80
2023-04-02T17:22:05.509Z,98.70
2023-04-02T17:24:48.923Z,99.00
2023-04-02T17:27:43.464Z,98.90
2023-04-02T17:30:44.648Z,98.90
2023-04-02T17:33:18.604Z,98.90
2023-04-02T17:35:55.103Z,99.00
2023-04-02T17:38:50.512Z,99.00
2023-04-02T17:41:33.763Z,98.90
2023-04-02T17:44:47.841Z,98.90
2023-04-02T17:47:29.025Z,98.50
2023-04-02T17:50:12.116Z,98.90
2023-04-02T17:53:20.368Z,99.00
2023-04-02T17:56:31.856Z,98.90
2023-04-02T17:59:30.186Z,99.00
2023-04-02T18:02:26.721Z,98.90
2023-04-02T18:05:45.988Z,98.80
2023-04-02T18:08:22.434Z,98.80
2023-04-02T18:11:34.578Z,99.20
2023-04-02T18:15:02.668Z,98.80
2023-04-02T18:17:51.941Z,98.80
2023-04-02T18:20:56.750Z,98.80
2023-04-02T18:23:59.444Z,98.90
2023-04-02T18:26:49.593Z,98.50
2023-04-02T18:30:14.666Z,98.60
2023-04-02T18:33:19.837Z,98.60
2023-04-02T18:36:47.116Z,99.00
2023-04-02T18:39:41.378Z,98.90
2023-04-02T18:43:24.619Z,98.70
2023-04-02T18:46:36.092Z,98.90
2023-04-02T18:49:35.900Z,98.90
2023-04-02T18:52:17.865Z,98.90
2023-04-02T18:55:14.737Z,98.80
2023-04-02T18:57:46.416Z,99.20
2023-04-02T19:00:30.890Z,99.10
2023-04-02T19:03:25.020Z,99.20
2023-04-02T19:06:26.951Z,99.40
2023-04-02T19:09:11.526Z,99.60
2023-04-02T19:11:38.502Z,99.60
2023-04-02T19:14:17.218Z,99.50
2023-04-02T19:17:19.516Z,99.40
2023-04-02T19:20:11.291Z,99.50
2023-04-02T19:23:31.122Z,99.30
2023-04-02T19:26:15.947Z,99.30
2023-04-02T19:29:10.849Z,98.80
2023-04-02T19:32:29.431Z,98.20
2023-04-02T19:35:36.339Z,98.00
2023-04-02T19:39:01.332Z,97.90
2023-04-02T19:41:51.789Z,97.60
2023-04-02T19:44:20.617Z,97.50
2023-04-02T19:46:47.851Z,97.30
2023-04-02T19:49:29.057Z,97.40
2023-04-02T19:51:56.805Z,97.50
2023-04-02T19:54:23.967Z,97.30
2023-04-02T19:56:51.145Z,97.20
2023-04-02T19:59:18.891Z,97.30
2023-04-02T20:01:47.221Z,96.70
2023-04-02T20:04:14.961Z,96.80
2023-04-02T20:06:41.974Z,96.90
2023-04-02T20:09:09.474Z,96.90
2023-04-02T20:11:38.488Z,96.60
2023-04-02T20:14:05.968Z,96.70
2023-04-02T20:16:34.171Z,96.60
2023-04-02T20:19:01.380Z,96.70
2023-04-02T20:21:29.348Z,96.50
2023-04-02T20:23:56.240Z,96.60
2023-04-02T20:26:23.235Z,96.40
2023-04-02T20:28:50.332Z,96.40
2023-04-02T20:31:18.863Z,96.40
2023-04-02T20:33:46.574Z,96.30
2023-04-02T20:36:17.753Z,95.80
2023-04-02T20:38:45.519Z,95.50
2023-04-02T20:41:15.568Z,95.50
2023-04-02T20:43:42.774Z,95.70
2023-04-02T20:46:12.705Z,95.70
2023-04-02T20:48:40.345Z,95.40
2023-04-02T20:51:13.038Z,95.60
2023-04-02T20:53:39.997Z,95.60
2023-04-02T20:56:14.288Z,95.60
2023-04-02T20:58:43.583Z,95.40
2023-04-02T21:01:21.297Z,95.40
2023-04-02T21:03:54.159Z,95.30
2023-04-02T21:06:25.382Z,95.10
2023-04-02T21:08:53.468Z,94.80
2023-04-02T21:11:22.322Z,94.90
2023-04-02T21:13:50.493Z,94.50
2023-04-02T21:16:23.467Z,94.30
2023-04-02T21:18:53.389Z,94.30
2023-04-02T21:21:22.431Z,94.20
2023-04-02T21:24:01.773Z,94.00
2023-04-02T21:26:36.559Z,93.70
2023-04-02T21:29:05.685Z,93.40
2023-04-02T21:31:39.676Z,93.40
2023-04-02T21:34:09.299Z,93.40
2023-04-02T21:36:43.511Z,93.40
2023-04-02T21:39:17.708Z,93.40
2023-04-02T21:41:49.931Z,93.30
2023-04-02T21:44:21.857Z,93.50
2023-04-02T21:46:51.729Z,93.80
2023-04-02T21:49:22.592Z,93.40
2023-04-02T21:51:51.547Z,93.70
2023-04-02T21:54:19.002Z,93.60
2023-04-02T21:56:47.589Z,93.50
2023-04-02T21:59:17.760Z,93.60
2023-04-02T22:01:50.231Z,93.60
2023-04-02T22:04:24.812Z,93.60
2023-04-02T22:06:53.272Z,93.70
2023-04-02T22:09:26.418Z,93.60
2023-04-02T22:12:01.621Z,93.00
2023-04-02T22:14:29.865Z,92.90
2023-04-02T22:16:58.641Z,93.10
2023-04-02T22:19:26.659Z,93.20
2023-04-02T22:21:53.551Z,93.20
2023-04-02T22:24:22.298Z,93.20
2023-04-02T22:26:50.527Z,93.30
2023-04-02T22:29:18.022Z,93.30
2023-04-02T22:31:45.437Z,92.90
2023-04-02T22:34:12.633Z,92.70
2023-04-02T22:36:39.484Z,92.50
2023-04-02T22:39:10.264Z,91.50
2023-04-02T22:41:37.142Z,91.40
2023-04-02T22:44:04.498Z,91.30
2023-04-02T22:46:31.652Z,91.40
2023-04-02T22:48:59.159Z,91.90
2023-04-02T22:51:27.611Z,92.00
2023-04-02T22:53:56.714Z,91.90
2023-04-02T22:56:32.042Z,92.00
2023-04-02T22:58:59.469Z,92.00
2023-04-02T23:01:35.466Z,92.10
2023-04-02T23:04:04.773Z,92.20
2023-04-02T23:06:32.286Z,92.40
2023-04-02T23:08:59.209Z,92.30
2023-04-02T23:11:28.172Z,92.20
2023-04-02T23:13:57.842Z,92.60
2023-04-02T23:16:28.977Z,92.50
2023-04-02T23:18:58.017Z,92.50
2023-04-02T23:21:26.482Z,92.70
2023-04-02T23:23:54.466Z,93.00
2023-04-02T23:26:30.475Z,93.10
2023-04-02T23:29:00.609Z,93.10
2023-04-02T23:31:29.037Z,93.20
2023-04-02T23:33:56.022Z,93.30
2023-04-02T23:36:29.094Z,93.20
2023-04-02T23:39:11.096Z,93.40
2023-04-02T23:41:42.422Z,93.40
2023-04-02T23:44:10.304Z,93.40
2023-04-02T23:46:37.647Z,93.40
2023-04-02T23:49:04.886Z,93.50
2023-04-02T23:51:32.480Z,93.20
2023-04-02T23:53:59.954Z,93.20
2023-04-02T23:56:27.270Z,93.40
2023-04-02T23:58:54.288Z,93.30
